Manga, Brazil
Current Conditions -  °F | °C
As of 8:00 PM on Monday 24 Nov 2014 (Local Time) from SBMK Reporting Station
Overcast Overcast  
Wind Chill: 77°   Ceiling: 10000
Heat Index: 79°   Visibility: 6mi
Dew Point: 66°   Wind: 5mph
Humidity: 69%   Direction: 150°SSE
Pressure: 29.97"   Gusts: NA
Location:  14.76°S, 43.93°W
Report Text: SBMK 242200Z 15004KT 9999 FEW030 OVC100 25/19 Q1015
Loading
Personal Weather Stations






























Interactive Weather Map New forecast layout! Learn more

10-Day Weather Forecast

Advertisements
Track Severe Weather on mobile